Cristalina, Brazil
Current Conditions -  °F | °C
As of 6:00 AM on Saturday 25 Oct 2014 (Local Time) from SBBR Reporting Station
Broken Clouds Broken Clouds  
Wind Chill: 72°   Ceiling: 8000
Heat Index: 72°   Visibility: 6mi
Dew Point: 63°   Wind: 3mph
Humidity: 73%   Direction: 310°NW
Pressure: 29.97"   Gusts: NA
Location:  16.77°S, 47.61°W
Report Text: SBBR 250800Z 31003KT 9999 FEW020 BKN080 22/17 Q1015
Loading
Personal Weather Stations






























Interactive Weather Map
Tropical Storm Tracking
New forecast layout! Learn more

10-Day Weather Forecast

Advertisements
Track Severe Weather on mobile